Time;durP1;ratioP1;P1;durP2;ratioP2;P2;SDS_P1;SDS_P2;PMS_P1;PMS_P2;Temp;Humidity;BMP_temperature;BMP_pressure;BME280_temperature;BME280_humidity;BME280_pressure;Samples;Min_cycle;Max_cycle;Signal;HPM_P1;HPM_P2
2022/04/06 00:00:08;;;;;;;29.35;11.43;;;8.90;99.90;;;;;;5112838;28;20153;-79
2022/04/06 00:02:34;;;;;;;33.05;14.60;;;8.90;99.90;;;;;;5079397;28;20398;-79
2022/04/06 00:05:00;;;;;;;29.45;13.15;;;8.90;99.90;;;;;;5110776;28;20050;-79
2022/04/06 00:07:27;;;;;;;28.13;14.80;;;8.90;99.90;;;;;;5108371;28;20031;-78
2022/04/06 00:09:52;;;;;;;28.35;12.43;;;8.90;99.90;;;;;;5110593;28;20067;-78
2022/04/06 00:12:18;;;;;;;34.70;14.55;;;8.90;99.90;;;;;;5110326;28;20104;-79
2022/04/06 00:14:43;;;;;;;35.38;12.68;;;8.80;99.90;;;;;;5110901;28;20044;-79
2022/04/06 00:17:10;;;;;;;29.90;12.20;;;8.90;99.90;;;;;;5109502;28;20043;-79
2022/04/06 00:19:36;;;;;;;29.88;12.57;;;8.90;99.90;;;;;;5096531;28;20382;-80
2022/04/06 00:22:03;;;;;;;25.05;11.82;;;8.90;99.90;;;;;;5100984;27;20047;-79
2022/04/06 00:24:28;;;;;;;32.45;12.68;;;8.90;99.90;;;;;;5109701;28;20055;-79
2022/04/06 00:26:54;;;;;;;41.78;13.70;;;8.90;99.90;;;;;;5093497;28;20132;-79
2022/04/06 00:29:20;;;;;;;25.52;11.77;;;8.90;99.90;;;;;;5097592;28;20036;-78
2022/04/06 00:31:45;;;;;;;29.85;13.40;;;8.90;99.90;;;;;;5098988;28;20079;-78
2022/04/06 00:34:11;;;;;;;32.72;13.75;;;8.80;99.90;;;;;;5104964;27;20111;-80
2022/04/06 00:36:37;;;;;;;24.27;11.43;;;8.90;99.90;;;;;;5103654;27;20039;-79
2022/04/06 00:39:03;;;;;;;39.55;15.60;;;8.90;99.90;;;;;;5104166;28;20042;-79
2022/04/06 00:41:29;;;;;;;30.15;12.90;;;8.90;99.90;;;;;;5105801;28;20040;-79
2022/04/06 00:44:13;;;;;;;27.40;11.73;;;8.90;99.90;;;;;;5102631;28;20397;-78
2022/04/06 00:46:40;;;;;;;28.95;13.57;;;8.90;99.90;;;;;;5104850;27;20043;-78
2022/04/06 00:49:11;;;;;;;28.65;12.30;;;8.90;99.90;;;;;;5108336;28;20088;-78
2022/04/06 00:51:37;;;;;;;36.28;13.55;;;8.90;99.90;;;;;;5103903;27;20040;-78
2022/04/06 00:54:04;;;;;;;29.80;11.27;;;9.00;99.90;;;;;;5096330;27;20079;-78
2022/04/06 00:56:29;;;;;;;23.80;8.88;;;9.00;99.90;;;;;;5095639;27;20096;-78
2022/04/06 00:58:56;;;;;;;25.38;8.20;;;9.00;99.90;;;;;;5096902;27;20035;-78
2022/04/06 01:01:22;;;;;;;21.50;7.85;;;9.00;99.90;;;;;;5109348;28;20425;-78
2022/04/06 01:03:47;;;;;;;23.27;8.75;;;9.00;99.90;;;;;;5095826;28;20052;-78
2022/04/06 01:06:13;;;;;;;18.55;8.13;;;9.00;99.90;;;;;;5101141;28;20032;-79
2022/04/06 01:08:39;;;;;;;21.83;7.75;;;9.00;99.90;;;;;;5106776;27;20405;-78
2022/04/06 01:11:05;;;;;;;27.05;7.70;;;9.00;99.90;;;;;;5109279;28;20036;-79
2022/04/06 01:13:31;;;;;;;20.55;7.05;;;9.10;99.90;;;;;;5094238;28;20106;-78
2022/04/06 01:15:56;;;;;;;16.23;7.13;;;9.10;99.90;;;;;;5102679;28;20036;-80
2022/04/06 01:18:22;;;;;;;19.73;6.05;;;9.10;99.90;;;;;;5090333;28;20062;-79
2022/04/06 01:20:47;;;;;;;14.07;4.90;;;9.10;99.90;;;;;;5093576;28;20050;-79
2022/04/06 01:23:13;;;;;;;17.38;5.43;;;9.10;99.90;;;;;;5100437;28;20043;-79
2022/04/06 01:25:40;;;;;;;49.75;8.10;;;9.10;99.90;;;;;;5103027;28;20051;-78
2022/04/06 01:28:07;;;;;;;18.85;6.25;;;9.10;99.90;;;;;;5101877;28;20074;-79
2022/04/06 01:30:33;;;;;;;13.18;5.18;;;9.00;99.90;;;;;;5105647;28;20080;-79
2022/04/06 01:32:58;;;;;;;17.08;5.88;;;9.10;99.90;;;;;;5099624;28;20451;-79
2022/04/06 01:35:25;;;;;;;13.77;6.15;;;9.10;99.90;;;;;;5098885;28;20027;-79
2022/04/06 01:37:50;;;;;;;16.45;6.63;;;9.00;99.90;;;;;;5100067;28;20075;-80
2022/04/06 01:40:16;;;;;;;23.65;6.57;;;9.10;99.90;;;;;;5112433;28;20438;-80
2022/04/06 01:42:42;;;;;;;19.20;5.22;;;9.00;99.90;;;;;;5095075;28;20374;-78
2022/04/06 01:45:08;;;;;;;23.85;7.07;;;9.00;99.90;;;;;;5109759;28;20054;-79
2022/04/06 01:47:34;;;;;;;20.27;6.45;;;9.00;99.90;;;;;;5103984;28;20038;-79
2022/04/06 01:52:44;;;;;;;15.48;6.43;;;9.00;99.90;;;;;;5115148;27;20086;-78
2022/04/06 01:55:14;;;;;;;15.73;6.75;;;9.10;99.90;;;;;;5100896;28;20032;-78
2022/04/06 01:57:41;;;;;;;14.77;5.53;;;9.10;99.90;;;;;;5093088;27;20066;-80
2022/04/06 02:00:09;;;;;;;17.30;6.20;;;9.00;99.90;;;;;;5097795;28;20047;-80
2022/04/06 02:02:37;;;;;;;15.60;5.10;;;9.00;99.90;;;;;;5103437;28;20035;-79
2022/04/06 02:05:03;;;;;;;11.63;4.15;;;9.00;99.90;;;;;;5098564;28;20088;-79
2022/04/06 02:07:28;;;;;;;10.52;4.57;;;9.00;99.90;;;;;;5107505;28;20047;-79
2022/04/06 02:09:54;;;;;;;16.13;5.13;;;9.00;99.90;;;;;;5099915;28;20040;-79
2022/04/06 02:12:22;;;;;;;13.10;4.63;;;9.00;99.90;;;;;;5093949;28;20165;-78
2022/04/06 02:14:48;;;;;;;14.75;3.95;;;9.00;99.90;;;;;;5094596;28;20032;-79
2022/04/06 02:17:14;;;;;;;8.43;4.13;;;9.00;99.90;;;;;;5089145;28;20044;-78
2022/04/06 02:19:39;;;;;;;11.57;5.07;;;9.00;99.90;;;;;;5090034;28;20044;-78
2022/04/06 02:22:06;;;;;;;10.32;2.92;;;9.00;99.90;;;;;;5094532;28;20082;-79
2022/04/06 02:24:33;;;;;;;14.15;3.00;;;8.90;99.90;;;;;;5104803;28;20607;-79
2022/04/06 02:26:59;;;;;;;12.82;3.55;;;8.90;99.90;;;;;;5106282;28;20433;-79
2022/04/06 02:29:25;;;;;;;7.43;2.25;;;8.90;99.90;;;;;;5105758;28;20024;-79
2022/04/06 02:31:50;;;;;;;7.47;3.05;;;8.90;99.90;;;;;;5100960;28;20040;-79
2022/04/06 02:34:16;;;;;;;8.13;2.58;;;8.90;99.90;;;;;;5103347;28;20263;-80
2022/04/06 02:36:42;;;;;;;12.30;4.40;;;8.90;99.90;;;;;;5100157;28;20070;-79
2022/04/06 02:39:07;;;;;;;9.23;2.13;;;8.90;99.90;;;;;;5106371;28;20051;-80
2022/04/06 02:41:33;;;;;;;9.57;2.92;;;8.90;99.90;;;;;;5106932;28;20048;-78
2022/04/06 02:43:59;;;;;;;7.00;2.78;;;8.90;99.90;;;;;;5108978;28;20131;-77
2022/04/06 02:46:25;;;;;;;9.90;3.13;;;8.90;99.90;;;;;;5098662;28;20038;-78
2022/04/06 02:48:50;;;;;;;7.97;3.08;;;8.90;99.90;;;;;;5100927;28;20048;-78
2022/04/06 02:51:16;;;;;;;8.52;3.05;;;9.00;99.90;;;;;;5104393;28;20040;-79
2022/04/06 02:53:42;;;;;;;10.38;3.33;;;9.00;99.90;;;;;;5104880;28;20133;-79
2022/04/06 02:56:07;;;;;;;10.55;2.90;;;9.00;99.90;;;;;;5101624;28;20067;-79
2022/04/06 02:58:33;;;;;;;8.90;2.90;;;9.00;99.90;;;;;;5096079;28;20039;-79
2022/04/06 03:00:58;;;;;;;4.40;2.47;;;8.90;99.90;;;;;;5105266;28;20135;-80
2022/04/06 03:03:25;;;;;;;13.90;3.15;;;9.00;99.90;;;;;;5097905;28;20047;-79
2022/04/06 03:05:51;;;;;;;11.20;2.28;;;9.00;99.90;;;;;;5092589;28;20541;-79
2022/04/06 03:08:16;;;;;;;15.00;3.47;;;9.00;99.90;;;;;;5097573;28;20040;-79
2022/04/06 03:10:42;;;;;;;6.78;2.33;;;8.90;99.90;;;;;;5103936;28;20397;-78
2022/04/06 03:13:07;;;;;;;12.10;4.05;;;9.00;99.90;;;;;;5097021;28;20683;-80
2022/04/06 03:15:33;;;;;;;15.40;4.57;;;8.90;99.90;;;;;;5099716;28;20051;-79
2022/04/06 03:17:58;;;;;;;11.60;3.80;;;9.00;99.90;;;;;;5104442;28;20044;-79
2022/04/06 03:20:24;;;;;;;21.25;3.63;;;8.90;99.90;;;;;;5087705;28;20127;-80
2022/04/06 03:22:50;;;;;;;13.27;3.28;;;8.90;99.90;;;;;;5097494;28;20055;-79
2022/04/06 03:25:15;;;;;;;14.02;4.05;;;8.90;99.90;;;;;;5109066;28;20454;-80
2022/04/06 03:27:41;;;;;;;12.45;4.80;;;8.80;99.90;;;;;;5111711;28;20051;-80
2022/04/06 03:30:12;;;;;;;11.80;4.57;;;8.80;99.90;;;;;;5108262;28;20119;-79
2022/04/06 03:32:38;;;;;;;12.20;4.47;;;8.80;99.90;;;;;;5104103;27;20118;-80
2022/04/06 03:35:05;;;;;;;12.25;4.78;;;8.80;99.90;;;;;;5096696;28;20050;-80
2022/04/06 03:37:31;;;;;;;14.05;5.80;;;8.80;99.90;;;;;;5114049;27;20032;-79
2022/04/06 03:39:56;;;;;;;19.88;6.93;;;8.80;99.90;;;;;;5102495;27;20188;-80
2022/04/06 03:42:22;;;;;;;18.77;5.50;;;8.80;99.90;;;;;;5105533;28;20043;-79
2022/04/06 03:44:48;;;;;;;13.10;5.40;;;8.80;99.90;;;;;;5101349;27;20482;-79
2022/04/06 03:47:13;;;;;;;16.50;6.35;;;8.80;99.90;;;;;;5108764;28;20034;-79
2022/04/06 03:49:39;;;;;;;22.02;6.20;;;8.80;99.90;;;;;;5098549;28;20396;-80
2022/04/06 03:52:05;;;;;;;16.40;5.68;;;8.70;99.90;;;;;;5097996;28;20115;-79
2022/04/06 03:54:30;;;;;;;27.05;7.22;;;8.80;99.90;;;;;;5098861;28;20036;-79
2022/04/06 03:56:56;;;;;;;29.30;7.90;;;8.70;99.90;;;;;;5106095;27;20040;-80
2022/04/06 03:59:21;;;;;;;30.13;9.18;;;8.70;99.90;;;;;;5104163;28;20510;-79
2022/04/06 04:01:47;;;;;;;21.77;6.97;;;8.70;99.90;;;;;;5111188;28;20048;-80
2022/04/06 04:04:12;;;;;;;24.42;7.10;;;8.80;99.90;;;;;;5101358;27;20092;-79
2022/04/06 04:06:38;;;;;;;22.95;8.13;;;8.80;99.90;;;;;;5102078;28;20051;-77
2022/04/06 04:09:04;;;;;;;21.08;6.90;;;8.70;99.90;;;;;;5096613;27;20040;-79
2022/04/06 04:11:30;;;;;;;23.27;8.35;;;8.70;99.90;;;;;;5095362;27;21586;-79
2022/04/06 04:13:56;;;;;;;22.85;6.80;;;8.80;99.90;;;;;;5105295;27;20047;-79
2022/04/06 04:16:22;;;;;;;23.48;7.57;;;8.70;99.90;;;;;;5102029;28;20032;-78
2022/04/06 04:18:47;;;;;;;22.90;8.15;;;8.70;99.90;;;;;;5088981;27;20040;-78
2022/04/06 04:21:34;;;;;;;22.23;7.68;;;8.70;99.90;;;;;;5102165;28;20517;-79
2022/04/06 04:24:05;;;;;;;14.93;7.78;;;8.70;99.90;;;;;;5097167;27;20075;-79
2022/04/06 04:26:34;;;;;;;19.63;8.07;;;8.70;99.90;;;;;;5094412;28;20425;-78
2022/04/06 04:29:00;;;;;;;15.77;7.50;;;8.70;99.90;;;;;;5101618;27;20548;-79
2022/04/06 04:31:25;;;;;;;28.02;7.82;;;8.70;99.90;;;;;;5106853;28;20036;-78
2022/04/06 04:33:51;;;;;;;29.13;9.45;;;8.60;99.90;;;;;;5100935;27;20043;-79
2022/04/06 04:36:17;;;;;;;39.03;10.30;;;8.60;99.90;;;;;;5103916;28;20473;-79
2022/04/06 04:38:43;;;;;;;28.55;8.20;;;8.60;99.90;;;;;;5101495;28;20078;-79
2022/04/06 04:41:09;;;;;;;28.48;9.18;;;8.60;99.90;;;;;;5108739;28;20036;-77
2022/04/06 04:43:35;;;;;;;16.08;5.90;;;8.60;99.90;;;;;;5099416;28;20046;-79
2022/04/06 04:46:01;;;;;;;22.77;6.63;;;8.60;99.90;;;;;;5110068;28;20398;-79
2022/04/06 04:48:27;;;;;;;15.80;7.30;;;8.60;99.90;;;;;;5104377;27;20044;-79
2022/04/06 04:50:52;;;;;;;20.55;6.80;;;8.60;99.90;;;;;;5107963;28;20036;-78
2022/04/06 04:53:18;;;;;;;24.65;6.93;;;8.60;99.90;;;;;;5092781;28;20040;-79
2022/04/06 04:55:43;;;;;;;29.40;8.40;;;8.60;99.90;;;;;;5091307;28;20513;-79
2022/04/06 04:58:09;;;;;;;19.10;6.70;;;8.50;99.90;;;;;;5094856;28;20093;-78
2022/04/06 05:00:35;;;;;;;38.95;7.35;;;8.50;99.90;;;;;;5097822;28;20052;-79
2022/04/06 05:03:02;;;;;;;15.80;6.07;;;8.60;99.90;;;;;;5111935;28;20051;-79
2022/04/06 05:05:28;;;;;;;19.27;6.20;;;8.50;99.90;;;;;;5105598;28;20118;-79
2022/04/06 05:07:54;;;;;;;27.23;6.95;;;8.50;99.90;;;;;;5099860;28;20127;-78
2022/04/06 05:10:20;;;;;;;17.25;7.05;;;8.60;99.90;;;;;;5098455;27;20040;-78
2022/04/06 05:12:48;;;;;;;20.73;6.85;;;8.60;99.90;;;;;;5103298;28;20363;-79
2022/04/06 05:15:13;;;;;;;20.73;7.15;;;8.50;99.90;;;;;;5093044;28;20107;-79
2022/04/06 05:17:39;;;;;;;22.15;6.28;;;8.50;99.90;;;;;;5098576;27;20130;-78
2022/04/06 05:20:07;;;;;;;28.00;8.57;;;8.50;99.90;;;;;;5098291;28;20031;-78
2022/04/06 05:22:32;;;;;;;24.50;6.55;;;8.50;99.90;;;;;;5105140;28;20043;-79
2022/04/06 05:25:00;;;;;;;26.45;8.63;;;8.50;99.90;;;;;;5108108;28;20070;-80
2022/04/06 05:27:25;;;;;;;29.75;7.70;;;8.50;99.90;;;;;;5097048;28;20039;-79
2022/04/06 05:29:51;;;;;;;15.45;5.93;;;8.50;99.90;;;;;;5099756;28;20077;-78
2022/04/06 05:32:17;;;;;;;22.08;7.43;;;8.50;99.90;;;;;;5109782;28;20039;-78
2022/04/06 05:34:42;;;;;;;23.20;7.32;;;8.50;99.90;;;;;;5109654;28;20040;-79
2022/04/06 05:37:08;;;;;;;25.45;6.40;;;8.40;99.90;;;;;;5108886;28;20040;-78
2022/04/06 05:39:34;;;;;;;25.40;8.13;;;8.50;99.90;;;;;;5105190;28;20036;-79
2022/04/06 05:41:59;;;;;;;20.42;7.43;;;8.50;99.90;;;;;;5089875;28;20040;-78
2022/04/06 05:44:25;;;;;;;29.02;7.03;;;8.50;99.90;;;;;;5092812;27;20046;-78
2022/04/06 05:46:50;;;;;;;20.40;7.88;;;8.40;99.90;;;;;;5104407;28;20048;-78
2022/04/06 05:49:17;;;;;;;20.10;8.02;;;8.50;99.90;;;;;;5110046;28;20043;-79
2022/04/06 05:51:44;;;;;;;23.13;7.63;;;8.50;99.90;;;;;;5107987;27;20122;-78
2022/04/06 05:54:10;;;;;;;22.67;7.35;;;8.50;99.90;;;;;;5093559;28;20044;-79
2022/04/06 05:56:35;;;;;;;20.98;7.72;;;8.50;99.90;;;;;;5110922;27;20050;-79
2022/04/06 05:59:02;;;;;;;35.47;10.52;;;8.50;99.90;;;;;;5100455;28;20031;-79
2022/04/06 06:01:27;;;;;;;24.67;6.47;;;8.50;99.90;;;;;;5108143;28;20308;-79
2022/04/06 06:03:53;;;;;;;27.80;7.10;;;8.50;99.90;;;;;;5110166;27;20081;-79
2022/04/06 06:06:18;;;;;;;19.00;7.72;;;8.50;99.90;;;;;;5101026;28;20039;-79
2022/04/06 06:08:44;;;;;;;20.85;7.10;;;8.60;99.90;;;;;;5098251;28;20085;-79
2022/04/06 06:11:10;;;;;;;19.35;6.32;;;8.50;99.90;;;;;;5098527;28;20040;-79
2022/04/06 06:13:36;;;;;;;23.35;6.22;;;8.60;99.90;;;;;;5096478;28;20080;-78
2022/04/06 06:16:04;;;;;;;21.92;6.80;;;8.50;99.90;;;;;;5098833;28;20133;-78
2022/04/06 06:18:30;;;;;;;15.65;5.93;;;8.60;99.90;;;;;;5089898;28;20413;-79
2022/04/06 06:21:00;;;;;;;34.00;7.72;;;8.60;99.90;;;;;;5091064;28;20064;-79
2022/04/06 06:23:29;;;;;;;27.65;7.38;;;8.60;99.90;;;;;;5102870;28;20039;-80
2022/04/06 06:25:55;;;;;;;19.52;5.75;;;8.50;99.90;;;;;;5107034;27;20059;-80
2022/04/06 06:28:20;;;;;;;20.50;6.07;;;8.60;99.90;;;;;;5104116;28;20898;-78
2022/04/06 06:30:46;;;;;;;21.27;5.70;;;8.50;99.90;;;;;;5107444;28;20034;-77
2022/04/06 06:33:13;;;;;;;15.20;5.82;;;8.60;99.90;;;;;;5106741;28;20130;-76
2022/04/06 06:35:39;;;;;;;29.38;5.72;;;8.50;99.90;;;;;;5108152;28;20125;-78
2022/04/06 06:38:05;;;;;;;15.10;4.75;;;8.60;99.90;;;;;;5111530;28;20048;-79
2022/04/06 06:40:30;;;;;;;33.72;6.40;;;8.60;99.90;;;;;;5109311;28;20037;-79
2022/04/06 06:42:56;;;;;;;25.35;6.15;;;8.50;99.90;;;;;;5113509;28;20038;-77
2022/04/06 06:45:21;;;;;;;17.55;5.25;;;8.60;99.90;;;;;;5102967;27;20548;-79
2022/04/06 06:47:47;;;;;;;19.63;4.55;;;8.50;99.90;;;;;;5103573;28;20035;-78
2022/04/06 06:50:16;;;;;;;14.40;4.18;;;8.60;99.90;;;;;;5108301;28;20063;-78
2022/04/06 06:52:41;;;;;;;24.10;5.03;;;8.50;99.90;;;;;;5106648;28;20040;-78
2022/04/06 06:55:10;;;;;;;19.83;5.18;;;8.50;99.90;;;;;;5086131;28;20036;-79
2022/04/06 06:57:36;;;;;;;21.88;4.25;;;8.50;99.90;;;;;;5094282;28;20046;-79
2022/04/06 07:00:04;;;;;;;17.38;4.25;;;8.50;99.90;;;;;;5099419;28;20040;-79
2022/04/06 07:02:29;;;;;;;29.17;5.80;;;8.50;99.90;;;;;;5098314;28;20100;-79
2022/04/06 07:04:55;;;;;;;22.77;3.60;;;8.50;99.90;;;;;;5098454;28;20043;-79
2022/04/06 07:07:20;;;;;;;28.77;4.13;;;8.50;99.90;;;;;;5104082;27;20067;-79
2022/04/06 07:09:46;;;;;;;17.00;3.20;;;8.50;99.90;;;;;;5110943;27;20046;-80
2022/04/06 07:12:11;;;;;;;15.13;4.43;;;8.50;99.90;;;;;;5108561;27;20134;-79
2022/04/06 07:14:37;;;;;;;25.73;4.78;;;8.50;99.90;;;;;;5098865;28;20036;-79
2022/04/06 07:17:03;;;;;;;26.88;6.38;;;8.60;99.90;;;;;;5098713;28;20059;-79
2022/04/06 07:19:29;;;;;;;19.70;4.40;;;8.50;99.90;;;;;;5101581;28;20036;-78
2022/04/06 07:21:55;;;;;;;13.93;4.68;;;8.60;99.90;;;;;;5093453;28;20054;-79
2022/04/06 07:24:20;;;;;;;23.23;5.90;;;8.60;99.90;;;;;;5103258;28;20051;-80
2022/04/06 07:26:46;;;;;;;15.48;4.18;;;8.60;99.90;;;;;;5097882;28;20530;-80
2022/04/06 07:29:13;;;;;;;24.13;6.13;;;8.60;99.90;;;;;;5096019;28;20269;-79
2022/04/06 07:31:39;;;;;;;16.90;3.33;;;8.60;99.90;;;;;;5104006;28;20043;-77
2022/04/06 07:34:05;;;;;;;18.45;4.13;;;8.60;99.90;;;;;;5105875;28;20036;-79
2022/04/06 07:36:33;;;;;;;20.90;4.75;;;8.70;99.90;;;;;;5097852;28;20121;-79
2022/04/06 07:39:02;;;;;;;17.85;4.00;;;8.60;99.90;;;;;;5093255;27;20291;-79
2022/04/06 07:41:28;;;;;;;13.10;3.30;;;8.60;99.90;;;;;;5101401;28;20406;-79
2022/04/06 07:43:53;;;;;;;14.85;4.68;;;8.70;99.90;;;;;;5093148;27;20043;-79
2022/04/06 07:46:19;;;;;;;24.33;4.80;;;8.70;99.90;;;;;;5092757;27;20124;-81
2022/04/06 07:48:45;;;;;;;15.63;4.72;;;8.70;99.90;;;;;;5094352;27;20058;-80
2022/04/06 07:51:10;;;;;;;16.98;5.28;;;8.70;99.90;;;;;;5090892;28;20125;-80
2022/04/06 07:53:36;;;;;;;19.92;4.82;;;8.80;99.90;;;;;;5090074;28;20040;-80
2022/04/06 07:56:01;;;;;;;26.20;5.32;;;8.80;99.90;;;;;;5089219;28;20036;-79
2022/04/06 07:58:27;;;;;;;17.92;4.57;;;8.80;99.90;;;;;;5104655;28;20055;-79
2022/04/06 08:00:53;;;;;;;20.23;5.55;;;8.90;99.90;;;;;;5096679;28;20039;-79
2022/04/06 08:03:18;;;;;;;22.75;6.30;;;8.80;99.90;;;;;;5108223;28;20466;-80
2022/04/06 08:05:44;;;;;;;23.48;4.90;;;8.70;99.90;;;;;;5097617;27;20040;-80
2022/04/06 08:08:09;;;;;;;19.75;4.32;;;8.80;99.90;;;;;;5101708;28;20047;-79
2022/04/06 08:10:35;;;;;;;12.50;3.22;;;8.80;99.90;;;;;;5107242;28;20394;-79
2022/04/06 08:13:01;;;;;;;27.48;4.90;;;8.80;99.90;;;;;;5094296;28;20247;-81
2022/04/06 08:15:27;;;;;;;21.88;6.32;;;8.80;99.90;;;;;;5105345;28;20041;-80
2022/04/06 08:17:53;;;;;;;23.67;5.07;;;8.80;99.90;;;;;;5103028;28;20127;-80
2022/04/06 08:20:19;;;;;;;21.20;3.80;;;8.80;99.90;;;;;;5097318;27;20546;-80
2022/04/06 08:22:46;;;;;;;20.73;5.03;;;8.80;99.90;;;;;;5099192;28;20475;-79
2022/04/06 08:25:14;;;;;;;29.60;5.47;;;8.80;99.90;;;;;;5107047;27;21203;-79
2022/04/06 08:27:40;;;;;;;19.75;4.28;;;8.80;99.90;;;;;;5095963;27;20091;-80
2022/04/06 08:30:11;;;;;;;14.95;3.92;;;8.80;99.90;;;;;;5102054;28;20047;-80
2022/04/06 08:32:37;;;;;;;15.68;4.90;;;8.90;99.90;;;;;;5083925;28;20390;-80
2022/04/06 08:35:03;;;;;;;21.45;4.55;;;8.90;99.90;;;;;;5110235;27;20071;-80
2022/04/06 08:37:30;;;;;;;12.93;3.92;;;8.90;99.90;;;;;;5097228;28;20040;-81
2022/04/06 08:39:56;;;;;;;14.23;3.83;;;9.00;99.90;;;;;;5097697;28;20043;-81
2022/04/06 08:42:22;;;;;;;13.93;4.25;;;9.00;99.90;;;;;;5105570;28;20036;-80
2022/04/06 08:44:47;;;;;;;13.98;5.20;;;9.00;99.90;;;;;;5099592;28;20040;-79
2022/04/06 08:47:14;;;;;;;14.02;4.57;;;9.10;99.90;;;;;;5111398;28;20039;-80
2022/04/06 08:49:45;;;;;;;17.05;5.35;;;9.10;99.90;;;;;;5106076;28;20039;-79
2022/04/06 08:52:11;;;;;;;14.68;4.55;;;9.10;99.90;;;;;;5108039;27;20040;-80
2022/04/06 08:54:37;;;;;;;14.35;3.75;;;9.20;99.90;;;;;;5111479;27;20397;-79
2022/04/06 08:57:05;;;;;;;15.18;5.40;;;9.40;99.90;;;;;;5095632;27;20123;-79
2022/04/06 08:59:31;;;;;;;14.82;3.22;;;9.50;99.90;;;;;;5092041;27;20063;-83
2022/04/06 09:01:56;;;;;;;16.65;4.07;;;9.60;99.90;;;;;;5109781;28;20089;-82
2022/04/06 09:04:24;;;;;;;20.85;5.53;;;9.70;99.90;;;;;;5110610;28;20039;-83
2022/04/06 09:06:50;;;;;;;14.10;3.83;;;10.00;99.90;;;;;;5110808;28;20079;-82
2022/04/06 09:09:24;;;;;;;19.98;3.80;;;10.00;99.90;;;;;;5109575;28;20180;-85
2022/04/06 09:11:50;;;;;;;14.05;3.63;;;10.00;99.90;;;;;;5103467;27;20047;-84
2022/04/06 09:14:16;;;;;;;20.73;5.97;;;10.00;99.90;;;;;;5110473;27;20027;-84
2022/04/06 09:16:41;;;;;;;20.05;3.63;;;10.20;99.90;;;;;;5109054;28;20039;-86
2022/04/06 09:19:14;;;;;;;34.90;6.57;;;10.30;99.90;;;;;;5112060;27;20054;-87
2022/04/06 09:21:41;;;;;;;11.70;3.55;;;10.40;99.90;;;;;;5111110;27;20398;-85
2022/04/06 09:24:14;;;;;;;25.42;6.30;;;10.40;99.90;;;;;;5111791;28;20092;-86
2022/04/06 09:26:40;;;;;;;15.68;4.22;;;10.40;99.90;;;;;;5110396;28;20115;-82
2022/04/06 09:29:06;;;;;;;15.73;3.28;;;10.40;99.90;;;;;;5111331;28;20571;-81
2022/04/06 09:31:38;;;;;;;15.05;4.72;;;10.60;99.90;;;;;;5108795;28;20662;-80
2022/04/06 09:34:04;;;;;;;9.52;2.72;;;10.60;99.90;;;;;;5104533;28;20083;-79
2022/04/06 09:36:34;;;;;;;10.18;3.40;;;10.60;99.90;;;;;;5106147;28;20066;-78
2022/04/06 09:39:00;;;;;;;11.88;3.88;;;10.60;99.90;;;;;;5119209;27;20658;-78
2022/04/06 09:41:26;;;;;;;13.80;4.10;;;10.60;99.90;;;;;;5120765;27;20031;-78
2022/04/06 09:47:38;;;;;;;16.40;4.43;;;10.40;99.90;;;;;;5116075;27;20043;-79
2022/04/06 09:51:19;;;;;;;23.70;5.25;;;10.20;99.90;;;;;;5102534;28;20048;-79
2022/04/06 09:54:07;;;;;;;17.95;4.90;;;10.20;99.90;;;;;;5090300;28;20048;-80
2022/04/06 09:57:11;;;;;;;18.65;3.90;;;10.10;99.90;;;;;;5089547;27;20031;-80
2022/04/06 10:00:18;;;;;;;19.00;5.50;;;10.00;99.90;;;;;;5105187;28;20483;-78
2022/04/06 10:03:21;;;;;;;15.00;3.22;;;10.00;99.90;;;;;;5097569;28;20096;-79
2022/04/06 10:05:49;;;;;;;22.48;5.68;;;9.90;99.90;;;;;;5107723;27;20083;-82
2022/04/06 10:08:34;;;;;;;14.90;3.97;;;9.90;99.90;;;;;;5105507;27;20113;-81
2022/04/06 10:11:01;;;;;;;22.70;6.82;;;9.90;99.90;;;;;;5090806;28;20050;-83
2022/04/06 10:13:27;;;;;;;19.60;5.88;;;10.00;99.90;;;;;;5103565;28;20047;-81
2022/04/06 10:15:54;;;;;;;13.40;4.25;;;9.90;99.90;;;;;;5105164;28;20024;-82
2022/04/06 10:18:20;;;;;;;12.50;3.17;;;9.90;99.90;;;;;;5094744;27;20385;-81
2022/04/06 10:20:55;;;;;;;17.58;4.20;;;10.00;99.90;;;;;;5110273;28;20133;-82
2022/04/06 10:23:56;;;;;;;15.68;4.45;;;9.90;99.90;;;;;;5109038;28;20047;-81
2022/04/06 10:26:39;;;;;;;25.30;5.15;;;9.90;99.90;;;;;;5093192;28;20040;-82
2022/04/06 10:29:05;;;;;;;13.93;4.45;;;9.90;99.90;;;;;;5089812;28;20040;-82
2022/04/06 10:31:31;;;;;;;22.85;5.55;;;10.00;99.90;;;;;;5105339;27;20126;-81
2022/04/06 10:34:32;;;;;;;25.67;6.07;;;9.90;99.90;;;;;;5109960;27;20600;-81
2022/04/06 10:37:41;;;;;;;24.73;5.07;;;9.90;99.90;;;;;;5094454;28;20063;-82
2022/04/06 10:40:42;;;;;;;21.45;4.82;;;9.90;99.90;;;;;;5106882;28;20047;-81
2022/04/06 10:43:50;;;;;;;16.88;5.78;;;9.90;99.90;;;;;;5110613;27;20039;-80
2022/04/06 10:47:08;;;;;;;25.25;6.43;;;9.90;99.90;;;;;;5112299;28;20108;-78
2022/04/06 10:50:32;;;;;;;24.48;6.47;;;10.00;99.90;;;;;;5134074;27;20054;-80
2022/04/06 10:53:19;;;;;;;26.45;6.05;;;10.00;99.90;;;;;;5109119;28;20036;-78
2022/04/06 10:56:17;;;;;;;20.15;5.40;;;10.10;99.90;;;;;;5089237;28;20044;-83
2022/04/06 10:58:58;;;;;;;23.90;5.97;;;10.20;99.90;;;;;;5111725;27;20051;-78
2022/04/06 11:01:31;;;;;;;22.58;5.53;;;10.10;99.90;;;;;;5114031;28;20507;-78
2022/04/06 11:03:59;;;;;;;26.45;6.05;;;10.20;99.90;;;;;;5122298;27;20035;-78
2022/04/06 11:07:00;;;;;;;19.73;5.30;;;10.30;99.90;;;;;;5120930;27;20036;-79
2022/04/06 11:12:31;;;;;;;23.17;4.93;;;10.60;99.90;;;;;;5092602;28;20070;-79
2022/04/06 11:14:59;;;;;;;;;;;10.70;99.90;;;;;;5113224;28;20032;-79
2022/04/06 11:17:44;;;;;;;27.55;6.18;;;10.70;99.90;;;;;;5104336;28;19920;-79
2022/04/06 11:20:39;;;;;;;21.90;5.57;;;11.10;99.90;;;;;;5114441;28;20055;-78
2022/04/06 11:23:07;;;;;;;22.50;4.95;;;11.10;99.90;;;;;;5109349;28;20430;-78
2022/04/06 11:25:33;;;;;;;22.60;6.05;;;11.10;99.90;;;;;;5119257;28;20075;-78
2022/04/06 11:28:11;;;;;;;13.63;5.18;;;11.30;99.90;;;;;;5120610;28;20055;-79
2022/04/06 11:30:42;;;;;;;16.83;3.83;;;11.70;99.90;;;;;;5094294;28;20050;-81
2022/04/06 11:33:08;;;;;;;22.02;4.18;;;11.70;99.90;;;;;;5116891;28;20039;-79
2022/04/06 11:35:35;;;;;;;17.75;4.47;;;12.00;99.90;;;;;;5122953;28;20055;-79
2022/04/06 11:38:04;;;;;;;13.95;3.95;;;11.90;99.90;;;;;;5122739;27;20062;-80
2022/04/06 11:40:29;;;;;;;14.63;3.28;;;11.80;99.90;;;;;;5118646;28;20082;-78
2022/04/06 11:43:02;;;;;;;16.55;4.90;;;12.00;99.90;;;;;;5112877;28;20071;-79
2022/04/06 11:45:47;;;;;;;20.27;4.43;;;12.20;99.90;;;;;;5112936;28;20047;-81
2022/04/06 11:48:14;;;;;;;14.25;3.63;;;12.30;99.90;;;;;;5095265;28;20036;-86
2022/04/06 11:50:41;;;;;;;15.43;4.30;;;12.30;99.90;;;;;;5105008;28;20040;-78
2022/04/06 11:53:09;;;;;;;16.52;3.80;;;12.40;99.90;;;;;;5098402;27;20047;-79
2022/04/06 11:55:54;;;;;;;11.57;2.42;;;12.40;99.90;;;;;;5113359;27;20043;-80
2022/04/06 11:58:32;;;;;;;16.85;5.78;;;12.40;99.90;;;;;;5105179;27;20032;-80
2022/04/06 12:01:21;;;;;;;12.32;3.95;;;12.30;99.90;;;;;;5094552;28;20509;-80
2022/04/06 12:03:47;;;;;;;19.73;4.60;;;12.10;99.90;;;;;;5102269;28;20047;-80
2022/04/06 12:06:14;;;;;;;11.57;3.67;;;12.00;99.90;;;;;;5106693;27;20510;-80
2022/04/06 12:08:45;;;;;;;14.65;4.32;;;11.90;99.90;;;;;;5103819;28;20039;-81
2022/04/06 12:11:18;;;;;;;16.20;3.42;;;12.20;99.90;;;;;;5102580;28;20059;-80
2022/04/06 12:13:45;;;;;;;;;;;12.30;99.90;;;;;;5100765;28;20040;-80
2022/04/06 12:16:11;;;;;;;14.38;4.43;;;12.30;99.90;;;;;;5109262;28;19998;-81
2022/04/06 12:18:39;;;;;;;17.00;4.78;;;12.40;99.90;;;;;;5104538;28;20129;-80
2022/04/06 12:21:22;;;;;;;32.88;4.43;;;12.30;99.90;;;;;;5103221;27;20118;-80
2022/04/06 12:23:48;;;;;;;23.00;3.53;;;12.20;99.90;;;;;;5120102;27;20149;-79
2022/04/06 12:26:15;;;;;;;15.77;3.88;;;12.00;99.90;;;;;;5100979;28;20463;-80
2022/04/06 12:28:43;;;;;;;19.08;4.32;;;11.80;99.90;;;;;;5107346;27;20040;-80
2022/04/06 12:31:10;;;;;;;22.15;5.72;;;11.70;99.90;;;;;;5101150;28;20142;-78
2022/04/06 12:33:46;;;;;;;20.10;5.28;;;11.70;99.90;;;;;;5102994;27;20124;-79
2022/04/06 12:36:42;;;;;;;13.57;2.53;;;11.70;99.90;;;;;;5107335;28;20040;-79
2022/04/06 12:39:13;;;;;;;21.67;5.35;;;11.60;99.90;;;;;;5094901;28;20524;-80
2022/04/06 12:42:02;;;;;;;28.42;6.03;;;11.70;99.90;;;;;;5109495;28;20046;-78
2022/04/06 12:44:30;;;;;;;11.95;3.65;;;11.70;99.90;;;;;;5118326;28;20043;-79
2022/04/06 12:46:56;;;;;;;15.90;4.57;;;11.80;99.90;;;;;;5104466;28;20055;-79
2022/04/06 12:49:23;;;;;;;14.68;3.38;;;12.10;99.90;;;;;;5107223;27;20042;-79
2022/04/06 12:52:04;;;;;;;19.58;3.78;;;12.00;99.90;;;;;;5103172;28;20067;-80
2022/04/06 12:54:33;;;;;;;10.40;2.83;;;11.90;99.90;;;;;;5090676;28;20055;-80
2022/04/06 12:57:13;;;;;;;25.38;7.03;;;12.00;99.90;;;;;;5095259;27;20047;-80
2022/04/06 12:59:39;;;;;;;;;;;12.10;99.90;;;;;;5095942;28;20131;-78
2022/04/06 13:02:05;;;;;;;16.05;3.65;;;12.00;99.90;;;;;;5108977;27;20022;-77
2022/04/06 13:04:36;;;;;;;11.98;2.80;;;12.00;99.90;;;;;;5122645;27;20047;-79